Time;durP1;ratioP1;P1;durP2;ratioP2;P2;SDS_P1;SDS_P2;PMS_P1;PMS_P2;Temp;Humidity;BMP_temperature;BMP_pressure;BME280_temperature;BME280_humidity;BME280_pressure;Samples;Min_cycle;Max_cycle;Signal;HPM_P1;HPM_P2
2023/03/02 00:02:21;;;;;;;19.10;12.50;;;;;;;;;;5080196;28;20558;-63
2023/03/02 00:04:50;;;;;;;19.77;12.17;;;;;;;;;;5079844;28;20448;-63
2023/03/02 00:07:21;;;;;;;19.23;12.37;;;;;;;;;;5080069;28;20476;-63
2023/03/02 00:09:49;;;;;;;19.63;12.27;;;;;;;;;;5079769;28;20253;-63
2023/03/02 00:12:17;;;;;;;24.17;13.93;;;;;;;;;;5080125;28;20293;-63
2023/03/02 00:14:45;;;;;;;21.17;12.13;;;;;;;;;;5079744;28;20206;-63
2023/03/02 00:17:13;;;;;;;21.77;13.10;;;;;;;;;;5079887;28;20213;-62
2023/03/02 00:19:41;;;;;;;20.00;12.80;;;;;;;;;;5079667;28;20700;-62
2023/03/02 00:22:09;;;;;;;20.63;12.97;;;;;;;;;;5079823;28;20210;-62
2023/03/02 00:24:39;;;;;;;18.27;11.83;;;;;;;;;;5079926;28;20210;-63
2023/03/02 00:27:07;;;;;;;22.20;13.97;;;;;;;;;;5079670;28;20230;-63
2023/03/02 00:29:35;;;;;;;23.40;13.83;;;;;;;;;;5079523;28;20279;-63
2023/03/02 00:32:03;;;;;;;21.50;13.60;;;;;;;;;;5079547;28;20288;-63
2023/03/02 00:34:31;;;;;;;20.70;12.90;;;;;;;;;;5079499;28;20591;-63
2023/03/02 00:36:59;;;;;;;18.30;11.50;;;;;;;;;;5079222;28;20554;-63
2023/03/02 00:39:27;;;;;;;24.83;12.57;;;;;;;;;;5079126;28;20981;-63
2023/03/02 00:41:57;;;;;;;23.00;13.50;;;;;;;;;;5079413;28;20475;-62
2023/03/02 00:44:25;;;;;;;20.97;12.67;;;;;;;;;;5078872;28;20450;-62
2023/03/02 00:46:52;;;;;;;20.47;12.40;;;;;;;;;;5079234;28;20487;-63
2023/03/02 00:49:20;;;;;;;21.73;13.70;;;;;;;;;;5079065;28;21006;-62
2023/03/02 00:51:48;;;;;;;22.77;12.97;;;;;;;;;;5079262;28;20479;-63
2023/03/02 00:54:16;;;;;;;20.27;12.60;;;;;;;;;;5079017;28;20508;-63
2023/03/02 00:56:44;;;;;;;23.13;12.53;;;;;;;;;;5078942;28;20552;-63
2023/03/02 00:59:25;;;;;;;21.07;12.77;;;;;;;;;;5078620;28;20472;-63
2023/03/02 01:01:56;;;;;;;19.27;12.80;;;;;;;;;;5078967;28;20490;-62
2023/03/02 01:04:29;;;;;;;18.00;12.53;;;;;;;;;;5079007;28;20480;-63
2023/03/02 01:06:58;;;;;;;20.80;12.43;;;;;;;;;;5078796;28;20494;-63
2023/03/02 01:09:26;;;;;;;21.97;12.17;;;;;;;;;;5075208;28;20541;-63
2023/03/02 01:11:54;;;;;;;23.90;14.43;;;;;;;;;;5078618;28;20472;-63
2023/03/02 01:14:24;;;;;;;20.43;12.90;;;;;;;;;;5078183;28;20839;-63
2023/03/02 01:16:52;;;;;;;22.43;12.53;;;;;;;;;;5078554;28;20440;-62
2023/03/02 01:19:20;;;;;;;25.20;14.63;;;;;;;;;;5078188;28;20467;-63
2023/03/02 01:21:48;;;;;;;26.40;14.07;;;;;;;;;;5078276;28;20448;-62
2023/03/02 01:24:16;;;;;;;22.47;13.10;;;;;;;;;;5078188;28;20863;-63
2023/03/02 01:26:44;;;;;;;21.33;12.80;;;;;;;;;;5078088;28;20840;-63
2023/03/02 01:29:12;;;;;;;21.67;13.73;;;;;;;;;;5078081;28;20464;-63
2023/03/02 01:31:41;;;;;;;22.53;12.70;;;;;;;;;;5078005;28;20444;-63
2023/03/02 01:34:09;;;;;;;23.13;14.17;;;;;;;;;;5078085;28;20444;-62
2023/03/02 01:36:37;;;;;;;22.30;13.73;;;;;;;;;;5077931;28;20512;-62
2023/03/02 01:39:05;;;;;;;21.70;13.63;;;;;;;;;;5078363;28;20441;-63
2023/03/02 01:41:33;;;;;;;24.53;13.80;;;;;;;;;;5078092;28;20449;-63
2023/03/02 01:44:01;;;;;;;26.13;14.77;;;;;;;;;;5077946;28;20855;-63
2023/03/02 01:46:31;;;;;;;24.43;13.60;;;;;;;;;;5078161;28;20486;-63
2023/03/02 01:49:02;;;;;;;18.33;12.67;;;;;;;;;;5078248;28;20444;-62
2023/03/02 01:51:32;;;;;;;23.37;14.03;;;;;;;;;;5078071;28;20468;-63
2023/03/02 01:54:01;;;;;;;25.13;12.87;;;;;;;;;;5077735;28;20467;-63
2023/03/02 01:56:33;;;;;;;20.73;13.53;;;;;;;;;;5078146;28;20464;-63
2023/03/02 01:59:09;;;;;;;24.53;12.80;;;;;;;;;;5078001;28;20505;-62
2023/03/02 02:01:38;;;;;;;21.90;12.77;;;;;;;;;;5077969;28;20475;-62
2023/03/02 02:04:07;;;;;;;26.07;14.63;;;;;;;;;;5078029;28;20448;-62
2023/03/02 02:06:37;;;;;;;22.70;14.03;;;;;;;;;;5077454;28;20515;-63
2023/03/02 02:09:08;;;;;;;22.87;13.23;;;;;;;;;;5078195;28;20444;-62
2023/03/02 02:11:36;;;;;;;18.87;12.90;;;;;;;;;;5077963;28;20788;-62
2023/03/02 02:14:04;;;;;;;24.37;13.63;;;;;;;;;;5077716;28;20440;-62
2023/03/02 02:16:33;;;;;;;23.40;13.93;;;;;;;;;;5077733;28;20440;-62
2023/03/02 02:19:02;;;;;;;22.70;13.27;;;;;;;;;;5077885;28;20489;-62
2023/03/02 02:21:32;;;;;;;21.53;13.17;;;;;;;;;;5077741;28;20457;-62
2023/03/02 02:24:05;;;;;;;23.80;12.93;;;;;;;;;;5077578;28;20468;-62
2023/03/02 02:26:37;;;;;;;23.93;13.50;;;;;;;;;;5077825;28;20533;-62
2023/03/02 02:29:06;;;;;;;24.50;13.13;;;;;;;;;;5077359;28;20462;-62
2023/03/02 02:31:36;;;;;;;24.87;14.40;;;;;;;;;;5077533;28;20539;-63
2023/03/02 02:34:07;;;;;;;23.67;12.87;;;;;;;;;;5077730;28;20441;-63
2023/03/02 02:36:37;;;;;;;22.30;12.90;;;;;;;;;;5077733;28;20448;-62
2023/03/02 02:39:07;;;;;;;23.07;14.73;;;;;;;;;;5064274;28;20523;-62
2023/03/02 02:41:38;;;;;;;21.70;13.17;;;;;;;;;;5077713;28;20455;-62
2023/03/02 02:44:06;;;;;;;21.90;13.17;;;;;;;;;;5077679;28;20441;-62
2023/03/02 02:46:35;;;;;;;22.90;13.80;;;;;;;;;;5077471;28;20523;-63
2023/03/02 02:49:03;;;;;;;24.90;13.33;;;;;;;;;;5077637;28;20493;-63
2023/03/02 02:51:32;;;;;;;25.13;13.60;;;;;;;;;;5077506;28;20454;-62
2023/03/02 02:54:01;;;;;;;23.00;14.07;;;;;;;;;;5077328;28;20444;-63
2023/03/02 02:56:30;;;;;;;24.13;14.10;;;;;;;;;;5077523;28;20451;-62
2023/03/02 02:59:02;;;;;;;22.47;13.70;;;;;;;;;;5077049;28;20496;-62
2023/03/02 03:01:30;;;;;;;25.83;13.73;;;;;;;;;;5077462;28;20528;-62
2023/03/02 03:04:00;;;;;;;22.10;14.87;;;;;;;;;;5077212;28;20453;-62
2023/03/02 03:06:36;;;;;;;22.87;13.57;;;;;;;;;;5077287;28;20452;-63
2023/03/02 03:09:05;;;;;;;24.60;14.47;;;;;;;;;;5080998;28;20439;-62
2023/03/02 03:11:34;;;;;;;25.33;14.40;;;;;;;;;;5081180;28;20470;-63
2023/03/02 03:14:08;;;;;;;23.37;13.77;;;;;;;;;;5080940;28;20448;-62
2023/03/02 03:16:37;;;;;;;22.90;14.30;;;;;;;;;;5081035;28;20479;-62
2023/03/02 03:19:08;;;;;;;21.97;14.60;;;;;;;;;;5080692;28;20931;-62
2023/03/02 03:21:36;;;;;;;23.53;14.53;;;;;;;;;;5080847;28;20535;-63
2023/03/02 03:24:04;;;;;;;25.43;14.37;;;;;;;;;;5080964;28;20454;-63
2023/03/02 03:26:32;;;;;;;23.60;13.73;;;;;;;;;;5080877;28;20440;-63
2023/03/02 03:29:01;;;;;;;24.20;14.63;;;;;;;;;;5080566;28;20445;-63
2023/03/02 03:31:30;;;;;;;24.47;13.67;;;;;;;;;;5080758;28;20528;-62
2023/03/02 03:33:59;;;;;;;31.87;15.53;;;;;;;;;;5080494;28;20943;-62
2023/03/02 03:36:28;;;;;;;24.77;14.50;;;;;;;;;;5080945;28;20444;-62
2023/03/02 03:38:56;;;;;;;26.13;14.53;;;;;;;;;;5080445;28;20494;-63
2023/03/02 03:41:24;;;;;;;23.07;13.67;;;;;;;;;;5080396;28;20444;-62
2023/03/02 03:43:52;;;;;;;25.80;13.77;;;;;;;;;;5080428;28;20445;-62
2023/03/02 03:46:20;;;;;;;23.60;13.83;;;;;;;;;;5080505;28;20528;-63
2023/03/02 03:48:50;;;;;;;25.83;14.80;;;;;;;;;;5080259;28;20480;-62
2023/03/02 03:51:18;;;;;;;24.50;14.23;;;;;;;;;;5080496;28;20436;-62
2023/03/02 03:53:58;;;;;;;25.27;13.87;;;;;;;;;;5080215;28;20448;-62
2023/03/02 03:56:27;;;;;;;22.77;13.37;;;;;;;;;;5080029;28;20966;-62
2023/03/02 03:59:05;;;;;;;24.70;14.07;;;;;;;;;;5079963;28;20867;-62
2023/03/02 04:01:34;;;;;;;24.77;14.07;;;;;;;;;;5080005;28;20950;-62
2023/03/02 04:04:05;;;;;;;25.90;14.10;;;;;;;;;;5079993;28;20931;-63
2023/03/02 04:06:33;;;;;;;28.10;15.57;;;;;;;;;;5079918;28;20493;-63
2023/03/02 04:09:03;;;;;;;24.53;14.33;;;;;;;;;;5079968;28;20491;-63
2023/03/02 04:11:31;;;;;;;25.33;14.03;;;;;;;;;;5079982;28;20959;-63
2023/03/02 04:13:59;;;;;;;23.90;14.23;;;;;;;;;;5080017;28;20531;-62
2023/03/02 04:16:28;;;;;;;24.43;13.13;;;;;;;;;;5079982;28;20455;-62
2023/03/02 04:18:56;;;;;;;25.50;13.77;;;;;;;;;;5079117;28;20889;-62
2023/03/02 04:21:25;;;;;;;26.47;16.43;;;;;;;;;;5079788;28;20463;-62
2023/03/02 04:23:53;;;;;;;21.23;13.20;;;;;;;;;;5079554;28;20445;-62
2023/03/02 04:26:21;;;;;;;18.10;11.70;;;;;;;;;;5079832;28;20484;-62
2023/03/02 04:28:49;;;;;;;21.47;13.27;;;;;;;;;;5079293;28;20488;-63
2023/03/02 04:31:17;;;;;;;28.07;13.87;;;;;;;;;;5080217;28;20460;-62
2023/03/02 04:33:45;;;;;;;24.87;14.73;;;;;;;;;;5079409;28;20527;-63
2023/03/02 04:36:13;;;;;;;26.67;13.90;;;;;;;;;;5079644;28;20436;-62
2023/03/02 04:38:43;;;;;;;24.70;14.27;;;;;;;;;;5079179;28;20437;-62
2023/03/02 04:41:11;;;;;;;23.07;14.70;;;;;;;;;;5082833;28;20494;-61
2023/03/02 04:43:38;;;;;;;24.53;14.30;;;;;;;;;;5088755;28;21001;-62
2023/03/02 04:46:06;;;;;;;22.43;13.13;;;;;;;;;;5083432;28;20456;-62
2023/03/02 04:48:35;;;;;;;24.17;13.87;;;;;;;;;;5085502;28;20493;-62
2023/03/02 04:51:03;;;;;;;30.17;15.47;;;;;;;;;;5088476;28;20552;-62
2023/03/02 04:53:31;;;;;;;24.23;14.70;;;;;;;;;;5086673;28;20460;-62
2023/03/02 04:56:01;;;;;;;25.50;13.93;;;;;;;;;;5088246;28;20432;-62
2023/03/02 04:58:29;;;;;;;23.67;13.83;;;;;;;;;;5089452;28;20423;-63
2023/03/02 05:01:00;;;;;;;22.50;12.90;;;;;;;;;;5087440;28;20495;-63
2023/03/02 05:03:29;;;;;;;24.70;15.00;;;;;;;;;;5086743;28;20432;-62
2023/03/02 05:05:57;;;;;;;26.60;14.67;;;;;;;;;;5087895;28;20862;-63
2023/03/02 05:08:26;;;;;;;23.87;13.83;;;;;;;;;;5088243;28;20539;-62
2023/03/02 05:10:57;;;;;;;25.93;14.63;;;;;;;;;;5084287;28;20568;-63
2023/03/02 05:13:27;;;;;;;26.90;15.73;;;;;;;;;;5086795;28;20535;-63
2023/03/02 05:15:57;;;;;;;24.83;14.60;;;;;;;;;;5088270;28;20511;-63
2023/03/02 05:18:25;;;;;;;24.80;13.97;;;;;;;;;;5088324;28;20460;-63
2023/03/02 05:20:54;;;;;;;21.47;12.87;;;;;;;;;;5084398;28;20444;-63
2023/03/02 05:23:27;;;;;;;26.27;14.17;;;;;;;;;;5087147;28;20440;-63
2023/03/02 05:25:55;;;;;;;27.40;14.30;;;;;;;;;;5077209;28;20460;-63
2023/03/02 05:28:25;;;;;;;21.67;13.93;;;;;;;;;;5080324;28;20910;-62
2023/03/02 05:30:54;;;;;;;24.80;13.90;;;;;;;;;;5077322;28;20448;-62
2023/03/02 05:33:22;;;;;;;24.53;14.10;;;;;;;;;;5078764;28;20459;-62
2023/03/02 05:35:50;;;;;;;24.27;14.20;;;;;;;;;;5078801;28;20438;-63
2023/03/02 05:38:19;;;;;;;26.23;14.83;;;;;;;;;;5076250;28;20433;-62
2023/03/02 05:40:48;;;;;;;21.50;13.57;;;;;;;;;;5081357;28;20465;-62
2023/03/02 05:43:17;;;;;;;26.23;15.07;;;;;;;;;;5077718;28;20464;-62
2023/03/02 05:45:45;;;;;;;28.23;15.23;;;;;;;;;;5078351;28;20462;-62
2023/03/02 05:48:15;;;;;;;26.73;15.13;;;;;;;;;;5079178;28;20798;-62
2023/03/02 05:50:43;;;;;;;24.17;14.30;;;;;;;;;;5077625;28;20460;-62
2023/03/02 05:53:10;;;;;;;23.87;14.33;;;;;;;;;;5082771;28;20464;-61
2023/03/02 05:55:38;;;;;;;28.30;14.00;;;;;;;;;;5075524;28;20469;-62
2023/03/02 05:58:07;;;;;;;23.17;14.53;;;;;;;;;;5077591;28;20527;-62
2023/03/02 06:00:35;;;;;;;29.00;14.80;;;;;;;;;;5076187;28;20453;-62
2023/03/02 06:03:04;;;;;;;25.83;14.47;;;;;;;;;;5079150;28;20942;-62
2023/03/02 06:05:33;;;;;;;29.27;15.63;;;;;;;;;;5089028;28;20946;-62
2023/03/02 06:08:01;;;;;;;26.17;15.47;;;;;;;;;;5097827;28;20507;-62
2023/03/02 06:10:29;;;;;;;24.60;14.57;;;;;;;;;;5098183;28;20464;-62
2023/03/02 06:12:57;;;;;;;28.47;14.97;;;;;;;;;;5097681;28;20969;-62
2023/03/02 06:15:28;;;;;;;26.07;14.73;;;;;;;;;;5083316;28;20464;-62
2023/03/02 06:17:56;;;;;;;26.37;15.07;;;;;;;;;;5077027;28;20512;-62
2023/03/02 06:20:24;;;;;;;22.97;14.03;;;;;;;;;;5077848;28;20456;-61
2023/03/02 06:22:53;;;;;;;25.13;14.60;;;;;;;;;;5078820;28;20441;-62
2023/03/02 06:25:22;;;;;;;24.87;14.37;;;;;;;;;;5078463;28;20432;-62
2023/03/02 06:27:52;;;;;;;24.77;13.70;;;;;;;;;;5077505;28;20471;-62
2023/03/02 06:30:21;;;;;;;24.73;15.97;;;;;;;;;;5079914;28;20492;-62
2023/03/02 06:32:49;;;;;;;22.53;13.00;;;;;;;;;;5077097;28;20433;-62
2023/03/02 06:35:17;;;;;;;25.60;14.83;;;;;;;;;;5075713;28;20447;-62
2023/03/02 06:37:45;;;;;;;30.17;15.60;;;;;;;;;;5077331;28;20428;-62
2023/03/02 06:40:15;;;;;;;23.13;14.13;;;;;;;;;;5081551;28;20462;-62
2023/03/02 06:42:43;;;;;;;23.93;15.10;;;;;;;;;;5081319;28;20447;-62
2023/03/02 06:45:11;;;;;;;23.23;15.37;;;;;;;;;;5077443;28;20448;-62
2023/03/02 06:47:39;;;;;;;26.93;15.13;;;;;;;;;;5080098;28;20456;-62
2023/03/02 06:50:07;;;;;;;23.57;14.20;;;;;;;;;;5081041;28;20868;-62
2023/03/02 06:52:35;;;;;;;29.30;15.13;;;;;;;;;;5080486;28;20440;-62
2023/03/02 06:55:04;;;;;;;24.37;14.97;;;;;;;;;;5081995;28;20432;-62
2023/03/02 06:57:33;;;;;;;25.20;14.83;;;;;;;;;;5077808;28;20528;-62
2023/03/02 07:00:06;;;;;;;29.13;16.13;;;;;;;;;;5080414;28;20451;-62
2023/03/02 07:02:34;;;;;;;25.00;14.37;;;;;;;;;;5081189;28;20484;-61
2023/03/02 07:05:02;;;;;;;26.30;15.77;;;;;;;;;;5081184;28;20473;-63
2023/03/02 07:07:30;;;;;;;24.83;14.83;;;;;;;;;;5080375;28;20470;-60
2023/03/02 07:09:58;;;;;;;44.00;21.67;;;;;;;;;;5080369;28;20484;-62
2023/03/02 07:12:26;;;;;;;25.43;15.90;;;;;;;;;;5080512;28;20471;-62
2023/03/02 07:14:55;;;;;;;26.70;15.20;;;;;;;;;;5080731;28;20452;-61
2023/03/02 07:17:23;;;;;;;27.87;15.53;;;;;;;;;;5080669;28;20459;-61
2023/03/02 07:19:51;;;;;;;23.93;16.13;;;;;;;;;;5080808;28;20543;-62
2023/03/02 07:22:19;;;;;;;25.00;14.93;;;;;;;;;;5080738;28;20483;-62
2023/03/02 07:24:47;;;;;;;24.67;14.00;;;;;;;;;;5080446;28;20476;-62
2023/03/02 07:27:15;;;;;;;29.47;16.47;;;;;;;;;;5080687;28;20444;-62
2023/03/02 07:29:43;;;;;;;27.33;15.97;;;;;;;;;;5080359;28;20484;-62
2023/03/02 07:32:12;;;;;;;35.03;18.93;;;;;;;;;;5080189;28;20981;-62
2023/03/02 07:34:40;;;;;;;27.80;14.83;;;;;;;;;;5080290;28;20449;-62
2023/03/02 07:37:08;;;;;;;28.80;16.40;;;;;;;;;;5081565;28;20476;-62
2023/03/02 07:39:36;;;;;;;28.80;15.43;;;;;;;;;;5094339;28;20975;-63
2023/03/02 07:42:07;;;;;;;26.00;15.03;;;;;;;;;;5080281;28;20455;-62
2023/03/02 07:44:35;;;;;;;24.53;14.90;;;;;;;;;;5080376;28;20467;-62
2023/03/02 07:47:03;;;;;;;25.33;14.33;;;;;;;;;;5080251;28;20462;-62
2023/03/02 07:49:34;;;;;;;30.87;16.13;;;;;;;;;;5080271;28;20522;-62
2023/03/02 07:52:02;;;;;;;28.20;16.10;;;;;;;;;;5079489;28;20464;-62
2023/03/02 07:54:30;;;;;;;28.20;16.87;;;;;;;;;;5080134;28;20448;-63
2023/03/02 07:56:58;;;;;;;27.30;15.60;;;;;;;;;;5080035;28;20440;-62
2023/03/02 07:59:27;;;;;;;25.43;15.43;;;;;;;;;;5079858;28;20460;-62
2023/03/02 08:01:55;;;;;;;28.07;15.23;;;;;;;;;;5079211;28;20441;-62
2023/03/02 08:04:24;;;;;;;25.00;14.60;;;;;;;;;;5077671;28;20440;-62
2023/03/02 08:06:53;;;;;;;23.47;13.80;;;;;;;;;;5080413;28;20477;-62
2023/03/02 08:09:21;;;;;;;24.60;15.77;;;;;;;;;;5078293;28;20490;-62
2023/03/02 08:11:49;;;;;;;26.50;16.73;;;;;;;;;;5081572;28;20458;-62
2023/03/02 08:14:17;;;;;;;25.90;15.00;;;;;;;;;;5079322;28;20467;-62
2023/03/02 08:16:45;;;;;;;29.30;15.67;;;;;;;;;;5079700;28;20433;-62
2023/03/02 08:19:13;;;;;;;29.97;16.30;;;;;;;;;;5080888;28;20538;-62
2023/03/02 08:21:41;;;;;;;25.40;16.10;;;;;;;;;;5078464;28;20436;-62
2023/03/02 08:24:11;;;;;;;27.87;16.60;;;;;;;;;;5085237;28;20482;-62
2023/03/02 08:26:39;;;;;;;26.70;16.63;;;;;;;;;;5085848;28;20977;-62
2023/03/02 08:29:07;;;;;;;31.20;17.83;;;;;;;;;;5087449;28;20440;-62
2023/03/02 08:31:35;;;;;;;29.13;15.83;;;;;;;;;;5084915;28;20222;-63
2023/03/02 08:34:03;;;;;;;27.57;15.43;;;;;;;;;;5088163;28;20432;-63
2023/03/02 08:36:31;;;;;;;28.77;16.60;;;;;;;;;;5089125;28;20432;-63
2023/03/02 08:38:59;;;;;;;26.63;15.73;;;;;;;;;;5086924;28;20255;-62
2023/03/02 08:41:29;;;;;;;28.87;16.40;;;;;;;;;;5088960;28;20256;-62
2023/03/02 08:43:57;;;;;;;28.83;16.47;;;;;;;;;;5084794;28;20254;-62
2023/03/02 08:46:25;;;;;;;29.43;16.03;;;;;;;;;;5087540;28;20212;-62
2023/03/02 08:48:53;;;;;;;25.70;14.97;;;;;;;;;;5083632;28;20206;-64
2023/03/02 08:51:22;;;;;;;32.80;17.20;;;;;;;;;;5076765;28;20260;-62
2023/03/02 08:53:52;;;;;;;27.27;17.40;;;;;;;;;;5078941;28;20206;-62
2023/03/02 08:56:25;;;;;;;29.27;16.30;;;;;;;;;;5081267;28;20201;-63
2023/03/02 08:58:56;;;;;;;30.33;17.73;;;;;;;;;;5084770;28;20241;-63
2023/03/02 09:01:24;;;;;;;28.63;16.57;;;;;;;;;;5084053;28;20201;-63
2023/03/02 09:03:52;;;;;;;29.33;17.67;;;;;;;;;;5080261;28;20198;-63
2023/03/02 09:06:20;;;;;;;33.87;17.27;;;;;;;;;;5081264;28;20203;-64
2023/03/02 09:08:49;;;;;;;30.10;16.27;;;;;;;;;;5078713;28;20252;-64
2023/03/02 09:11:17;;;;;;;30.13;17.17;;;;;;;;;;5079483;28;20254;-63
2023/03/02 09:13:47;;;;;;;26.27;16.67;;;;;;;;;;5075952;28;20202;-63
2023/03/02 09:16:19;;;;;;;28.53;17.10;;;;;;;;;;5079608;28;20202;-63
2023/03/02 09:18:47;;;;;;;27.23;16.13;;;;;;;;;;5076262;28;20289;-63
2023/03/02 09:21:15;;;;;;;28.87;16.93;;;;;;;;;;5078469;28;20754;-64
2023/03/02 09:23:43;;;;;;;31.43;17.17;;;;;;;;;;5078329;28;20293;-64
2023/03/02 09:26:11;;;;;;;27.17;16.50;;;;;;;;;;5078308;28;20199;-62
2023/03/02 09:28:39;;;;;;;30.20;18.10;;;;;;;;;;5077984;28;20298;-64
2023/03/02 09:31:08;;;;;;;31.10;16.67;;;;;;;;;;5078144;28;20248;-64
2023/03/02 09:33:37;;;;;;;34.20;17.20;;;;;;;;;;5077770;28;20213;-62
2023/03/02 09:36:06;;;;;;;38.20;18.40;;;;;;;;;;5077619;28;20319;-61
2023/03/02 09:38:34;;;;;;;32.70;18.27;;;;;;;;;;5077717;28;20194;-63
2023/03/02 09:41:22;;;;;;;29.03;17.03;;;;;;;;;;5078724;28;20210;-62
2023/03/02 09:43:53;;;;;;;37.83;21.67;;;;;;;;;;5075892;28;20255;-63
2023/03/02 09:46:23;;;;;;;28.57;17.93;;;;;;;;;;5093703;28;20212;-63
2023/03/02 09:49:03;;;;;;;28.27;17.13;;;;;;;;;;5091224;28;20202;-61
2023/03/02 09:51:33;;;;;;;35.40;18.87;;;;;;;;;;5098216;28;20225;-61
2023/03/02 09:54:03;;;;;;;29.60;17.83;;;;;;;;;;5098111;28;20210;-61
2023/03/02 09:56:34;;;;;;;31.73;19.10;;;;;;;;;;5097929;28;20622;-62
2023/03/02 09:59:05;;;;;;;28.93;18.23;;;;;;;;;;5092200;28;20205;-63
2023/03/02 10:01:36;;;;;;;32.03;18.00;;;;;;;;;;5074100;28;20244;-61
2023/03/02 10:04:09;;;;;;;30.67;18.80;;;;;;;;;;5077310;28;20214;-62
2023/03/02 10:06:37;;;;;;;29.43;17.80;;;;;;;;;;5077342;28;20685;-64
2023/03/02 10:09:05;;;;;;;31.63;18.23;;;;;;;;;;5078458;28;20199;-63
2023/03/02 10:11:39;;;;;;;29.87;17.10;;;;;;;;;;5077193;28;20268;-64
2023/03/02 10:14:10;;;;;;;31.17;17.37;;;;;;;;;;5077640;28;20202;-62
2023/03/02 10:16:44;;;;;;;37.77;20.23;;;;;;;;;;5077451;28;20236;-64
2023/03/02 10:19:17;;;;;;;33.43;18.33;;;;;;;;;;5076191;28;20232;-63
2023/03/02 10:21:46;;;;;;;30.17;19.27;;;;;;;;;;5077597;28;20290;-62
2023/03/02 10:24:17;;;;;;;36.90;18.73;;;;;;;;;;5077606;28;20621;-63
2023/03/02 10:26:47;;;;;;;29.40;17.37;;;;;;;;;;5074322;28;20240;-63
2023/03/02 10:29:27;;;;;;;32.37;19.30;;;;;;;;;;5076627;28;20689;-62
2023/03/02 10:31:58;;;;;;;34.43;19.77;;;;;;;;;;5076973;28;20285;-63
2023/03/02 10:34:29;;;;;;;30.00;17.97;;;;;;;;;;5071605;28;20211;-63
2023/03/02 10:36:57;;;;;;;32.97;20.27;;;;;;;;;;5064315;28;20210;-62
2023/03/02 10:39:25;;;;;;;31.20;18.07;;;;;;;;;;5077295;28;20309;-63
2023/03/02 10:41:54;;;;;;;35.23;18.77;;;;;;;;;;5076859;28;20644;-62
2023/03/02 10:44:25;;;;;;;32.13;18.13;;;;;;;;;;5077123;28;20233;-63
2023/03/02 10:46:53;;;;;;;33.40;19.57;;;;;;;;;;5077365;28;20206;-61
2023/03/02 10:49:25;;;;;;;31.03;18.53;;;;;;;;;;5076967;28;20222;-63
2023/03/02 10:51:57;;;;;;;31.17;18.90;;;;;;;;;;5067413;28;20230;-63
2023/03/02 10:54:27;;;;;;;29.30;17.67;;;;;;;;;;5070819;28;20229;-63
2023/03/02 10:56:57;;;;;;;29.67;19.00;;;;;;;;;;5076688;28;20233;-63
2023/03/02 10:59:42;;;;;;;30.57;19.37;;;;;;;;;;5077020;28;20252;-63
2023/03/02 11:02:14;;;;;;;32.37;19.77;;;;;;;;;;5077138;28;20209;-63
2023/03/02 11:04:43;;;;;;;31.30;19.00;;;;;;;;;;5077296;28;20217;-62
2023/03/02 11:07:16;;;;;;;36.07;19.20;;;;;;;;;;5076924;28;20240;-64
2023/03/02 11:09:44;;;;;;;28.73;17.90;;;;;;;;;;5070138;28;20256;-63
2023/03/02 11:12:14;;;;;;;32.83;18.67;;;;;;;;;;5076770;28;20253;-64
2023/03/02 11:14:42;;;;;;;31.03;18.77;;;;;;;;;;5077177;28;20213;-63
2023/03/02 11:17:24;;;;;;;33.40;18.70;;;;;;;;;;5076698;28;20574;-63
2023/03/02 11:19:52;;;;;;;27.90;16.97;;;;;;;;;;5076909;28;20226;-63
2023/03/02 11:22:26;;;;;;;27.17;16.83;;;;;;;;;;5077068;28;20198;-63
2023/03/02 11:24:56;;;;;;;32.47;18.20;;;;;;;;;;5076938;28;20675;-64
2023/03/02 11:27:27;;;;;;;29.27;18.67;;;;;;;;;;5066013;28;20256;-63
2023/03/02 11:29:57;;;;;;;29.03;18.17;;;;;;;;;;5080803;28;20229;-65
2023/03/02 11:32:28;;;;;;;31.00;17.60;;;;;;;;;;5080562;28;20234;-66
2023/03/02 11:34:58;;;;;;;30.63;17.53;;;;;;;;;;5080720;28;20221;-64
2023/03/02 11:37:30;;;;;;;29.23;17.30;;;;;;;;;;5079823;28;20681;-62
2023/03/02 11:40:04;;;;;;;32.23;19.27;;;;;;;;;;5081675;28;20257;-63
2023/03/02 11:42:34;;;;;;;30.07;18.17;;;;;;;;;;5081110;28;20225;-62
2023/03/02 11:45:04;;;;;;;28.33;18.20;;;;;;;;;;5095065;28;20210;-62
2023/03/02 11:47:32;;;;;;;38.37;19.70;;;;;;;;;;5100684;28;20216;-63
2023/03/02 11:50:04;;;;;;;33.97;17.03;;;;;;;;;;5100550;28;20225;-63
2023/03/02 11:52:34;;;;;;;30.10;18.27;;;;;;;;;;5100329;28;20260;-63
2023/03/02 11:55:04;;;;;;;26.90;17.57;;;;;;;;;;5100285;28;20205;-63
2023/03/02 11:57:35;;;;;;;30.00;17.83;;;;;;;;;;5100426;28;20237;-63
2023/03/02 12:00:12;;;;;;;29.27;17.63;;;;;;;;;;5100376;28;20257;-63
2023/03/02 12:02:40;;;;;;;35.53;19.87;;;;;;;;;;5100431;28;20216;-63
2023/03/02 12:05:22;;;;;;;33.20;19.30;;;;;;;;;;5066828;28;20699;-63
2023/03/02 12:07:57;;;;;;;30.50;18.13;;;;;;;;;;5079894;28;20340;-62
2023/03/02 12:10:27;;;;;;;35.30;20.37;;;;;;;;;;5079799;28;20595;-63
2023/03/02 12:12:59;;;;;;;33.93;18.23;;;;;;;;;;5079774;28;20230;-63
2023/03/02 12:15:29;;;;;;;30.00;17.43;;;;;;;;;;5080028;28;20212;-63
2023/03/02 12:17:57;;;;;;;33.30;18.90;;;;;;;;;;5070006;28;20203;-63
2023/03/02 12:20:26;;;;;;;30.30;18.10;;;;;;;;;;5079127;28;20264;-63
2023/03/02 12:23:05;;;;;;;32.70;19.47;;;;;;;;;;5079923;28;20209;-62
2023/03/02 12:25:39;;;;;;;29.20;19.37;;;;;;;;;;5079508;28;20240;-62
2023/03/02 12:28:25;;;;;;;32.03;19.60;;;;;;;;;;5079453;28;20289;-62
2023/03/02 12:30:57;;;;;;;28.80;17.73;;;;;;;;;;5079413;28;20697;-62
2023/03/02 12:33:24;;;;;;;32.43;19.53;;;;;;;;;;5079550;28;20309;-62
2023/03/02 12:36:03;;;;;;;32.70;19.33;;;;;;;;;;5079326;28;20617;-62
2023/03/02 12:38:32;;;;;;;31.37;17.73;;;;;;;;;;5078973;28;20788;-63
2023/03/02 12:41:22;;;;;;;33.43;18.37;;;;;;;;;;5079392;28;20264;-63
2023/03/02 12:43:56;;;;;;;30.60;16.83;;;;;;;;;;5079251;28;20209;-63
2023/03/02 12:46:26;;;;;;;32.57;17.53;;;;;;;;;;5078966;28;20205;-63
2023/03/02 12:49:15;;;;;;;31.10;18.40;;;;;;;;;;5078926;28;20218;-63
2023/03/02 12:51:53;;;;;;;34.17;18.40;;;;;;;;;;5074305;28;20212;-63
2023/03/02 12:54:22;;;;;;;28.20;16.50;;;;;;;;;;5079330;28;20202;-63
2023/03/02 12:57:01;;;;;;;31.17;17.73;;;;;;;;;;5078703;28;20693;-63
2023/03/02 12:59:29;;;;;;;30.73;18.87;;;;;;;;;;5079124;28;20237;-63
2023/03/02 13:02:04;;;;;;;27.67;18.27;;;;;;;;;;5078991;28;20203;-63
2023/03/02 13:04:32;;;;;;;36.40;18.30;;;;;;;;;;5078836;28;20256;-64
2023/03/02 13:07:00;;;;;;;26.87;16.93;;;;;;;;;;5078606;28;20704;-64
2023/03/02 13:09:29;;;;;;;28.93;18.17;;;;;;;;;;5079038;28;20317;-64
2023/03/02 13:11:58;;;;;;;27.73;17.13;;;;;;;;;;5078630;28;20225;-64
2023/03/02 13:14:27;;;;;;;31.77;16.53;;;;;;;;;;5078828;28;20245;-64
2023/03/02 13:16:56;;;;;;;26.10;16.60;;;;;;;;;;5078317;28;20570;-64
2023/03/02 13:19:25;;;;;;;28.20;18.13;;;;;;;;;;5078375;28;20226;-63
2023/03/02 13:21:53;;;;;;;28.17;18.23;;;;;;;;;;5078728;28;20216;-63
2023/03/02 13:24:31;;;;;;;29.07;18.60;;;;;;;;;;5078329;28;20206;-60
2023/03/02 13:27:04;;;;;;;28.97;18.10;;;;;;;;;;5078130;28;20202;-62
2023/03/02 13:29:32;;;;;;;29.07;16.53;;;;;;;;;;5075005;28;20256;-62
2023/03/02 13:32:14;;;;;;;30.17;18.57;;;;;;;;;;5078242;28;20213;-63
2023/03/02 13:34:45;;;;;;;29.67;17.57;;;;;;;;;;5077818;28;20202;-63
2023/03/02 13:37:19;;;;;;;30.53;17.70;;;;;;;;;;5078338;28;20208;-63
2023/03/02 13:39:54;;;;;;;27.20;16.77;;;;;;;;;;5077889;28;20245;-63
2023/03/02 13:42:28;;;;;;;33.00;18.77;;;;;;;;;;5077971;28;20225;-62
2023/03/02 13:44:56;;;;;;;32.73;18.50;;;;;;;;;;5078159;28;20202;-63
2023/03/02 13:47:24;;;;;;;28.80;17.50;;;;;;;;;;5077679;28;20206;-62
2023/03/02 13:49:52;;;;;;;27.83;18.43;;;;;;;;;;5077507;28;20218;-63
2023/03/02 13:52:23;;;;;;;31.47;19.07;;;;;;;;;;5077337;28;20575;-63
2023/03/02 13:54:51;;;;;;;31.93;18.73;;;;;;;;;;5077876;28;20289;-61
2023/03/02 13:57:22;;;;;;;28.13;18.30;;;;;;;;;;5077505;28;20212;-61
2023/03/02 13:59:52;;;;;;;32.47;19.10;;;;;;;;;;5065410;28;20230;-62
2023/03/02 14:02:23;;;;;;;28.57;17.43;;;;;;;;;;5077716;28;20210;-63
2023/03/02 14:04:50;;;;;;;32.50;18.27;;;;;;;;;;5077871;28;20572;-63
2023/03/02 14:07:19;;;;;;;33.20;18.53;;;;;;;;;;5077653;28;20273;-62
2023/03/02 14:09:49;;;;;;;31.00;18.47;;;;;;;;;;5077926;28;20317;-62
2023/03/02 14:12:25;;;;;;;28.20;18.40;;;;;;;;;;5077573;28;20220;-62
2023/03/02 14:14:56;;;;;;;31.00;18.20;;;;;;;;;;5077968;28;20237;-62
2023/03/02 14:17:24;;;;;;;29.83;18.13;;;;;;;;;;5076162;28;20230;-63
2023/03/02 14:19:54;;;;;;;28.17;17.27;;;;;;;;;;5069558;28;20248;-64
2023/03/02 14:22:22;;;;;;;28.20;17.90;;;;;;;;;;5077535;28;20210;-63
2023/03/02 14:24:50;;;;;;;30.33;19.03;;;;;;;;;;5077938;28;20206;-63
2023/03/02 14:27:18;;;;;;;30.27;18.13;;;;;;;;;;5077348;28;20687;-64
2023/03/02 14:29:46;;;;;;;29.80;17.07;;;;;;;;;;5077610;28;20257;-63
2023/03/02 14:32:16;;;;;;;32.43;18.17;;;;;;;;;;5077492;28;20233;-63